SKBQ Airport Information

Runway Information
Runway 05 Length 9842 ft width 148 ft
Elevation 98 ft Threshold 0 ft Heading 40
Runway 23 Length 9842 ft Width 148 ft
Elevation 98 ft Threshold 0 ft Heading 220
Airport Frequencies
Type APP Name BARRANQUIL Frequency 119.1 MHZ
Type ATIS Name ATIS Frequency 113.7 MHZ
Type GND Name GND Frequency 121.9 MHZ
Type RDO Name BARRANQUIL Frequency 348.8 MHZ
Type TWR Name TWR Frequency 118.1 MHZ
Airport Navaids
Type NDB Name Barranquilla Frequency 264 KHZ
Type VOR-DME Name Barranquilla Frequency 113700 KHZ
Airport Weather Information & NOTAM
ADDS - METARS form results

(2045 UTC 21 April 2018)
 
METAR text: SKBQ 212000Z 36018KT 9999 FEW015 SCT200 30/24 A2975
Conditions at: SKBQ (BARRANQUILLA/ERN, CO) observed 2000 UTC 21 April 2018
Temperature: 30.0°C (86°F)
Dewpoint: 24.0°C (75°F) [RH = 70%]
Pressure (altimeter): 29.75 inches Hg (1007.5 mb)
Winds: from the N (360 degrees) at 21 MPH (18 knots; 9.4 m/s)
Visibility: 6 or more miles (10+ km)
Ceiling: at least 12,000 feet AGL
Clouds: few clouds at 1500 feet AGL
scattered clouds at 20000 feet AGL
Weather: no significant weather observed at this time